createdAt,value
2018-01-11T00:00:08.971Z,7.90
2018-01-11T00:02:38.129Z,8.13
2018-01-11T00:05:07.092Z,8.20
2018-01-11T00:07:37.722Z,9.60
2018-01-11T00:10:07.046Z,9.30
2018-01-11T00:12:40.797Z,7.90
2018-01-11T00:15:09.839Z,9.07
2018-01-11T00:17:40.392Z,10.80
2018-01-11T00:20:10.262Z,8.33
2018-01-11T00:22:39.273Z,7.97
2018-01-11T00:25:08.967Z,7.73
2018-01-11T00:27:40.638Z,7.83
2018-01-11T00:30:09.532Z,8.17
2018-01-11T00:32:38.632Z,8.50
2018-01-11T00:35:08.442Z,8.17
2018-01-11T00:37:37.666Z,7.53
2018-01-11T00:40:07.655Z,7.40
2018-01-11T00:42:37.434Z,6.60
2018-01-11T00:45:06.305Z,8.67
2018-01-11T00:47:35.134Z,7.30
2018-01-11T00:50:04.001Z,7.53
2018-01-11T00:52:32.816Z,8.93
2018-01-11T00:55:02.702Z,7.97
2018-01-11T00:57:31.806Z,7.70
2018-01-11T01:00:00.770Z,7.57
2018-01-11T01:02:30.723Z,7.70
2018-01-11T01:05:01.414Z,6.30
2018-01-11T01:07:30.694Z,9.30
2018-01-11T01:09:59.701Z,9.60
2018-01-11T01:12:29.498Z,7.70
2018-01-11T01:14:59.355Z,7.57
2018-01-11T01:17:29.180Z,9.10
2018-01-11T01:19:58.959Z,8.80
2018-01-11T01:22:28.412Z,9.30
2018-01-11T01:24:57.573Z,8.60
2018-01-11T01:27:27.393Z,8.97
2018-01-11T01:29:56.537Z,7.80
2018-01-11T01:32:25.651Z,9.20
2018-01-11T01:34:55.696Z,8.83
2018-01-11T01:37:28.541Z,8.83
2018-01-11T01:39:58.260Z,9.90
2018-01-11T01:42:27.536Z,8.77
2018-01-11T01:44:56.724Z,9.17
2018-01-11T01:47:28.200Z,9.30
2018-01-11T01:49:58.117Z,7.73
2018-01-11T01:52:27.075Z,8.80
2018-01-11T01:54:57.056Z,9.73
2018-01-11T01:57:26.731Z,8.57
2018-01-11T02:00:00.846Z,9.10
2018-01-11T02:02:30.886Z,9.03
2018-01-11T02:04:59.860Z,9.90
2018-01-11T02:07:28.956Z,9.10
2018-01-11T02:09:58.076Z,10.77
2018-01-11T02:12:26.980Z,9.10
2018-01-11T02:14:56.941Z,9.17
2018-01-11T02:17:25.956Z,11.03
2018-01-11T02:19:55.970Z,9.07
2018-01-11T02:22:27.405Z,9.20
2018-01-11T02:24:56.304Z,9.83
2018-01-11T02:27:26.638Z,9.90
2018-01-11T02:29:56.760Z,9.90
2018-01-11T02:32:25.971Z,9.83
2018-01-11T02:34:54.875Z,9.43
2018-01-11T02:37:26.612Z,8.70
2018-01-11T02:39:57.019Z,10.77
2018-01-11T02:42:26.790Z,11.37
2018-01-11T02:44:56.839Z,8.90
2018-01-11T02:47:25.968Z,10.43
2018-01-11T02:49:56.678Z,10.27
2018-01-11T02:52:28.868Z,10.30
2018-01-11T02:54:57.865Z,11.27
2018-01-11T02:57:26.853Z,11.67
2018-01-11T02:59:56.662Z,9.97
2018-01-11T03:02:25.561Z,10.80
2018-01-11T03:04:54.449Z,10.80
2018-01-11T03:07:26.966Z,9.60
2018-01-11T03:09:56.016Z,11.90
2018-01-11T03:12:26.281Z,13.60
2018-01-11T03:14:57.186Z,9.97
2018-01-11T03:17:26.197Z,10.60
2018-01-11T03:19:56.420Z,10.50
2018-01-11T03:22:26.502Z,11.50
2018-01-11T03:24:56.257Z,12.17
2018-01-11T03:27:25.327Z,14.10
2018-01-11T03:29:55.436Z,12.60
2018-01-11T03:32:24.573Z,11.73
2018-01-11T03:34:53.774Z,12.20
2018-01-11T03:37:22.835Z,10.80
2018-01-11T03:39:51.836Z,12.17
2018-01-11T03:42:20.894Z,13.77
2018-01-11T03:44:50.224Z,11.73
2018-01-11T03:47:19.161Z,11.97
2018-01-11T03:49:49.001Z,11.47
2018-01-11T03:52:19.824Z,10.90
2018-01-11T03:54:49.854Z,9.57
2018-01-11T03:57:19.027Z,10.40
2018-01-11T03:59:51.828Z,9.97
2018-01-11T04:02:20.874Z,11.17
2018-01-11T04:04:49.915Z,10.77
2018-01-11T04:07:22.198Z,9.10
2018-01-11T04:09:51.049Z,10.40
2018-01-11T04:12:19.917Z,10.53
2018-01-11T04:14:49.849Z,10.27
2018-01-11T04:17:18.663Z,9.80
2018-01-11T04:19:47.463Z,8.83
2018-01-11T04:22:17.350Z,9.10
2018-01-11T04:24:46.212Z,9.83
2018-01-11T04:27:15.028Z,10.37
2018-01-11T04:29:43.859Z,9.67
2018-01-11T04:32:12.652Z,10.03
2018-01-11T04:34:42.598Z,9.83
2018-01-11T04:37:11.586Z,10.20
2018-01-11T04:39:40.406Z,14.23
2018-01-11T04:42:09.221Z,11.93
2018-01-11T04:44:38.076Z,10.60
2018-01-11T04:47:06.913Z,15.50
2018-01-11T04:49:35.926Z,12.40
2018-01-11T04:52:04.816Z,12.87
2018-01-11T04:54:33.653Z,10.93
2018-01-11T04:57:02.492Z,11.50
2018-01-11T04:59:35.141Z,12.57
2018-01-11T05:02:04.003Z,12.73
2018-01-11T05:04:32.935Z,13.37
2018-01-11T05:07:01.777Z,10.53
2018-01-11T05:09:30.691Z,10.73
2018-01-11T05:11:59.467Z,10.97
2018-01-11T05:14:29.337Z,10.27
2018-01-11T05:16:58.207Z,10.97
2018-01-11T05:19:27.055Z,11.23
2018-01-11T05:21:55.989Z,12.10
2018-01-11T05:24:24.817Z,13.07
2018-01-11T05:26:53.684Z,12.73
2018-01-11T05:29:22.564Z,12.10
2018-01-11T05:31:51.375Z,12.30
2018-01-11T05:34:20.180Z,13.60
2018-01-11T05:36:50.256Z,11.30
2018-01-11T05:39:19.144Z,12.73
2018-01-11T05:41:47.968Z,12.60
2018-01-11T05:44:18.624Z,20.47
2018-01-11T05:46:47.474Z,92.27
2018-01-11T05:49:16.425Z,37.23
2018-01-11T05:54:19.748Z,34.90
2018-01-11T05:56:49.659Z,28.40
2018-01-11T05:59:23.153Z,27.60
2018-01-11T06:01:53.117Z,24.57
2018-01-11T06:04:23.727Z,26.30
2018-01-11T06:06:52.897Z,19.53
2018-01-11T06:09:21.867Z,17.80
2018-01-11T06:11:52.697Z,25.40
2018-01-11T06:14:21.653Z,19.00
2018-01-11T06:16:50.672Z,14.93
2018-01-11T06:19:20.496Z,15.80
2018-01-11T06:21:49.454Z,13.57
2018-01-11T06:24:19.311Z,13.97
2018-01-11T06:26:49.386Z,13.53
2018-01-11T06:29:19.152Z,12.30
2018-01-11T06:31:49.106Z,48.00
2018-01-11T06:34:18.218Z,63.13
2018-01-11T06:36:47.201Z,61.80
2018-01-11T06:39:16.201Z,26.80
2018-01-11T06:41:45.396Z,15.97
2018-01-11T06:44:15.209Z,15.60
2018-01-11T06:46:44.198Z,12.53
2018-01-11T06:49:14.185Z,14.23
2018-01-11T06:51:43.107Z,12.80
2018-01-11T06:54:12.842Z,14.10
2018-01-11T06:56:43.124Z,13.27
2018-01-11T06:59:12.145Z,13.07
2018-01-11T07:01:41.998Z,13.00
2018-01-11T07:04:12.675Z,13.47
2018-01-11T07:06:41.705Z,14.17
2018-01-11T07:09:10.751Z,12.03
2018-01-11T07:11:39.855Z,10.70
2018-01-11T07:14:08.923Z,10.93
2018-01-11T07:16:38.074Z,11.40
2018-01-11T07:19:09.793Z,21.37
2018-01-11T07:21:38.614Z,15.10
2018-01-11T07:24:07.494Z,18.53
2018-01-11T07:26:36.413Z,13.80
2018-01-11T07:29:05.294Z,17.43
2018-01-11T07:31:34.188Z,13.83
2018-01-11T07:34:03.928Z,12.87
2018-01-11T07:36:32.824Z,22.53
2018-01-11T07:39:01.649Z,22.60
2018-01-11T07:41:30.548Z,20.10
2018-01-11T07:43:59.373Z,20.80
2018-01-11T07:46:28.178Z,15.20
2018-01-11T07:48:57.213Z,16.13
2018-01-11T07:51:26.075Z,20.57
2018-01-11T07:53:54.916Z,26.63
2018-01-11T07:56:24.598Z,30.03
2018-01-11T07:58:53.522Z,17.73
2018-01-11T08:01:22.410Z,19.53
2018-01-11T08:03:52.866Z,13.20
2018-01-11T08:06:21.674Z,19.60
2018-01-11T08:08:50.466Z,16.20
2018-01-11T08:11:19.386Z,25.20
2018-01-11T08:13:48.292Z,15.70
2018-01-11T08:16:17.272Z,13.83
2018-01-11T08:18:46.176Z,20.43
2018-01-11T08:21:15.125Z,15.33
2018-01-11T08:23:43.975Z,15.97
2018-01-11T08:26:15.296Z,14.67
2018-01-11T08:28:44.135Z,18.70
2018-01-11T08:31:12.998Z,11.63
2018-01-11T08:33:42.256Z,22.47
2018-01-11T08:36:11.086Z,13.77
2018-01-11T08:38:39.949Z,15.60
2018-01-11T08:41:08.995Z,16.63
2018-01-11T08:43:37.841Z,13.63
2018-01-11T08:46:06.749Z,11.63
2018-01-11T08:48:35.875Z,13.47
2018-01-11T08:51:04.657Z,15.27
2018-01-11T08:53:33.487Z,15.37
2018-01-11T08:56:02.539Z,14.50
2018-01-11T08:58:31.366Z,15.10
2018-01-11T09:01:00.257Z,16.80
2018-01-11T09:03:31.528Z,19.40
2018-01-11T09:06:00.404Z,12.10
2018-01-11T09:08:29.263Z,18.13
2018-01-11T09:11:00.637Z,15.57
2018-01-11T09:13:29.515Z,20.07
2018-01-11T09:15:58.377Z,18.27
2018-01-11T09:18:27.512Z,23.63
2018-01-11T09:20:56.327Z,19.50
2018-01-11T09:23:25.148Z,12.20
2018-01-11T09:25:54.935Z,16.40
2018-01-11T09:28:23.749Z,16.80
2018-01-11T09:30:52.714Z,15.97
2018-01-11T09:33:23.218Z,18.70
2018-01-11T09:35:52.096Z,14.87
2018-01-11T09:38:20.902Z,16.80
2018-01-11T09:40:49.755Z,14.07
2018-01-11T09:43:18.597Z,14.60
2018-01-11T09:45:47.502Z,14.37
2018-01-11T09:48:16.344Z,17.93
2018-01-11T09:50:45.226Z,19.17
2018-01-11T09:53:14.065Z,19.37
2018-01-11T09:55:42.971Z,13.73
2018-01-11T09:58:11.769Z,14.50
2018-01-11T10:00:40.586Z,18.80
2018-01-11T10:03:09.390Z,18.10
2018-01-11T10:05:38.254Z,25.33
2018-01-11T10:08:07.026Z,22.00
2018-01-11T10:10:42.225Z,19.93
2018-01-11T10:13:11.049Z,27.70
2018-01-11T10:15:39.888Z,17.40
2018-01-11T10:18:08.888Z,20.77
2018-01-11T10:20:37.695Z,15.67
2018-01-11T10:23:06.505Z,13.60
2018-01-11T10:25:36.455Z,12.00
2018-01-11T10:28:05.243Z,16.13
2018-01-11T10:30:34.115Z,16.90
2018-01-11T10:33:06.318Z,13.53
2018-01-11T10:35:35.124Z,15.33
2018-01-11T10:38:04.026Z,13.47
2018-01-11T10:40:33.864Z,13.40
2018-01-11T10:43:02.858Z,14.20
2018-01-11T10:45:31.658Z,12.10
2018-01-11T10:48:01.302Z,11.30
2018-01-11T10:50:30.108Z,10.93
2018-01-11T10:52:59.017Z,10.50
2018-01-11T10:55:29.078Z,12.73
2018-01-11T10:57:57.913Z,13.87
2018-01-11T11:00:26.748Z,15.00
2018-01-11T11:02:56.677Z,16.10
2018-01-11T11:05:25.498Z,12.37
2018-01-11T11:07:54.347Z,15.23
2018-01-11T11:10:23.372Z,13.60
2018-01-11T11:12:52.197Z,12.70
2018-01-11T11:15:21.002Z,11.67
2018-01-11T11:17:53.106Z,11.50
2018-01-11T11:20:21.958Z,10.67
2018-01-11T11:22:50.748Z,12.97
2018-01-11T11:25:20.425Z,9.90
2018-01-11T11:27:49.207Z,10.57
2018-01-11T11:30:17.981Z,12.07
2018-01-11T11:32:48.605Z,13.00
2018-01-11T11:35:17.382Z,17.57
2018-01-11T11:37:46.170Z,16.60
2018-01-11T11:40:15.005Z,15.10
2018-01-11T11:42:43.814Z,13.93
2018-01-11T11:45:12.693Z,16.87
2018-01-11T11:47:43.330Z,14.13
2018-01-11T11:50:12.139Z,14.67
2018-01-11T11:52:40.987Z,13.97
2018-01-11T11:57:43.709Z,17.40
2018-01-11T12:00:12.582Z,14.30
2018-01-11T12:02:42.379Z,15.10
2018-01-11T12:05:11.183Z,12.37
2018-01-11T12:07:41.228Z,18.80
2018-01-11T12:10:10.275Z,15.80
2018-01-11T12:12:39.114Z,12.93
2018-01-11T12:15:07.924Z,13.33
2018-01-11T12:17:37.574Z,11.70
2018-01-11T12:20:06.384Z,13.50
2018-01-11T12:22:35.223Z,12.97
2018-01-11T12:25:04.334Z,13.60
2018-01-11T12:27:33.109Z,14.07
2018-01-11T12:30:01.882Z,13.70
2018-01-11T12:32:30.883Z,14.63
2018-01-11T12:34:59.758Z,14.80
2018-01-11T12:37:28.590Z,14.60
2018-01-11T12:39:58.527Z,15.63
2018-01-11T12:42:27.284Z,12.93
2018-01-11T12:44:56.082Z,15.07
2018-01-11T12:47:25.897Z,14.73
2018-01-11T12:49:54.948Z,14.63
2018-01-11T12:52:23.867Z,13.47
2018-01-11T12:54:53.850Z,14.30
2018-01-11T12:57:23.871Z,13.20
2018-01-11T12:59:52.825Z,14.37
2018-01-11T13:02:21.960Z,16.73
2018-01-11T13:04:50.951Z,16.53
2018-01-11T13:07:19.901Z,17.10
2018-01-11T13:09:49.042Z,15.07
2018-01-11T13:12:18.240Z,18.77
2018-01-11T13:14:47.140Z,16.30
2018-01-11T13:17:18.116Z,19.03
2018-01-11T13:19:47.065Z,16.70
2018-01-11T13:22:17.180Z,20.73
2018-01-11T13:24:47.136Z,19.90
2018-01-11T13:27:16.031Z,23.87
2018-01-11T13:29:45.016Z,22.50
2018-01-11T13:32:14.216Z,26.63
2018-01-11T13:34:43.934Z,23.70
2018-01-11T13:37:13.036Z,19.77
2018-01-11T13:39:42.164Z,20.63
2018-01-11T13:42:11.208Z,23.33
2018-01-11T13:44:41.020Z,21.83
2018-01-11T13:47:11.229Z,26.03
2018-01-11T13:49:40.234Z,20.60
2018-01-11T13:52:09.333Z,24.33
2018-01-11T13:54:40.683Z,22.70
2018-01-11T13:57:10.008Z,29.73
2018-01-11T13:59:38.977Z,27.80
2018-01-11T14:02:08.893Z,26.80
2018-01-11T14:04:37.924Z,30.80
2018-01-11T14:07:06.982Z,39.97
2018-01-11T14:09:37.732Z,26.30
2018-01-11T14:12:07.259Z,31.90
2018-01-11T14:14:36.435Z,43.27
2018-01-11T14:17:06.543Z,32.17
2018-01-11T14:19:35.582Z,29.63
2018-01-11T14:22:05.284Z,26.20
2018-01-11T14:24:34.956Z,30.23
2018-01-11T14:27:03.989Z,23.30
2018-01-11T14:29:32.883Z,21.63
2018-01-11T14:32:04.706Z,34.33
2018-01-11T14:34:34.665Z,27.00
2018-01-11T14:37:03.665Z,36.97
2018-01-11T14:39:32.967Z,33.77
2018-01-11T14:42:02.162Z,30.80
2018-01-11T14:44:31.346Z,26.57
2018-01-11T14:47:05.216Z,22.27
2018-01-11T14:49:35.135Z,23.20
2018-01-11T14:52:04.254Z,28.23
2018-01-11T14:54:38.344Z,24.13
2018-01-11T14:57:09.190Z,28.93
2018-01-11T14:59:38.609Z,38.80
2018-01-11T15:02:08.196Z,24.87
2018-01-11T15:04:38.109Z,22.63
2018-01-11T15:07:07.103Z,26.67
2018-01-11T15:09:36.149Z,18.80
2018-01-11T15:12:06.008Z,31.60
2018-01-11T15:14:36.367Z,26.10
2018-01-11T15:17:05.123Z,25.90
2018-01-11T15:19:34.157Z,19.63
2018-01-11T15:22:03.605Z,25.70
2018-01-11T15:24:32.757Z,36.63
2018-01-11T15:27:02.440Z,30.27
2018-01-11T15:29:31.937Z,25.00
2018-01-11T15:32:00.926Z,20.97
2018-01-11T15:34:30.028Z,23.10
2018-01-11T15:37:00.839Z,23.40
2018-01-11T15:39:29.858Z,22.27
2018-01-11T15:41:59.979Z,23.90
2018-01-11T15:44:31.784Z,19.07
2018-01-11T15:47:01.549Z,22.07
2018-01-11T15:49:31.569Z,23.63
2018-01-11T15:52:02.403Z,19.50
2018-01-11T15:54:32.525Z,20.33
2018-01-11T15:57:01.531Z,21.13
2018-01-11T15:59:32.612Z,18.70
2018-01-11T16:02:02.509Z,20.60
2018-01-11T16:04:32.355Z,20.40
2018-01-11T16:07:01.668Z,28.47
2018-01-11T16:09:30.780Z,25.13
2018-01-11T16:11:59.886Z,22.00
2018-01-11T16:17:03.097Z,20.07
2018-01-11T16:19:32.290Z,19.70
2018-01-11T16:22:01.186Z,19.77
2018-01-11T16:24:30.468Z,18.23
2018-01-11T16:26:59.487Z,19.23
2018-01-11T16:29:30.100Z,21.00
2018-01-11T16:31:59.253Z,18.80
2018-01-11T16:34:28.245Z,20.60
2018-01-11T16:37:02.241Z,26.60
2018-01-11T16:39:32.130Z,19.93
2018-01-11T16:42:02.113Z,21.73
2018-01-11T16:44:32.275Z,19.13
2018-01-11T16:47:02.299Z,19.37
2018-01-11T16:49:31.535Z,18.33
2018-01-11T16:52:01.396Z,19.23
2018-01-11T16:54:30.500Z,19.07
2018-01-11T16:56:59.795Z,24.27
2018-01-11T16:59:29.028Z,18.40
2018-01-11T17:01:58.333Z,17.27
2018-01-11T17:04:27.568Z,21.57
2018-01-11T17:06:56.868Z,15.90
2018-01-11T17:09:25.900Z,21.13
2018-01-11T17:11:54.996Z,21.27
2018-01-11T17:14:25.103Z,21.10
2018-01-11T17:16:54.148Z,19.03
2018-01-11T17:19:23.459Z,22.23
2018-01-11T17:21:52.609Z,20.90
2018-01-11T17:24:21.643Z,26.00
2018-01-11T17:26:50.562Z,19.50
2018-01-11T17:29:19.795Z,17.53
2018-01-11T17:31:48.687Z,20.40
2018-01-11T17:34:17.886Z,22.60
2018-01-11T17:36:47.808Z,21.67
2018-01-11T17:39:16.840Z,23.13
2018-01-11T17:41:46.852Z,20.37
2018-01-11T17:44:16.888Z,28.00
2018-01-11T17:46:46.032Z,36.53
2018-01-11T17:49:15.035Z,22.03
2018-01-11T17:51:45.038Z,21.43
2018-01-11T17:54:14.138Z,17.10
2018-01-11T17:56:44.119Z,22.53
2018-01-11T17:59:14.058Z,20.00
2018-01-11T18:01:43.167Z,26.20
2018-01-11T18:04:12.176Z,23.27
2018-01-11T18:06:41.664Z,30.97
2018-01-11T18:09:10.559Z,23.70
2018-01-11T18:11:40.506Z,23.50
2018-01-11T18:14:10.414Z,22.03
2018-01-11T18:16:39.490Z,21.37
2018-01-11T18:19:09.175Z,19.93
2018-01-11T18:21:40.827Z,20.40
2018-01-11T18:24:09.856Z,24.47
2018-01-11T18:26:38.844Z,23.47
2018-01-11T18:29:08.820Z,24.63
2018-01-11T18:31:37.900Z,22.10
2018-01-11T18:34:07.238Z,24.57
2018-01-11T18:36:36.349Z,21.60
2018-01-11T18:39:06.377Z,23.50
2018-01-11T18:41:35.565Z,27.77
2018-01-11T18:44:05.972Z,20.90
2018-01-11T18:46:34.958Z,21.80
2018-01-11T18:49:04.369Z,23.87
2018-01-11T18:51:33.803Z,21.70
2018-01-11T18:54:03.459Z,21.30
2018-01-11T18:56:32.586Z,21.50
2018-01-11T18:59:02.175Z,23.20
2018-01-11T19:01:32.178Z,22.17
2018-01-11T19:04:01.533Z,22.80
2018-01-11T19:06:35.745Z,22.43
2018-01-11T19:09:05.376Z,22.33
2018-01-11T19:11:43.459Z,20.13
2018-01-11T19:14:14.774Z,16.67
2018-01-11T19:16:44.035Z,22.57
2018-01-11T19:19:13.098Z,19.87
2018-01-11T19:21:42.253Z,18.33
2018-01-11T19:24:11.553Z,17.03
2018-01-11T19:26:40.819Z,17.13
2018-01-11T19:29:10.520Z,15.77
2018-01-11T19:31:40.002Z,16.07
2018-01-11T19:34:09.702Z,15.33
2018-01-11T19:36:39.626Z,15.40
2018-01-11T19:39:09.866Z,15.73
2018-01-11T19:41:40.910Z,19.67
2018-01-11T19:44:10.394Z,17.47
2018-01-11T19:46:40.127Z,17.20
2018-01-11T19:49:09.336Z,14.47
2018-01-11T19:51:38.321Z,16.70
2018-01-11T19:54:07.926Z,16.07
2018-01-11T19:56:41.420Z,15.63
2018-01-11T19:59:11.202Z,18.00
2018-01-11T20:01:41.646Z,17.80
2018-01-11T20:04:13.729Z,16.97
2018-01-11T20:06:43.594Z,18.00
2018-01-11T20:09:12.542Z,17.10
2018-01-11T20:11:43.770Z,16.53
2018-01-11T20:14:12.775Z,16.40
2018-01-11T20:16:42.133Z,17.10
2018-01-11T20:19:11.280Z,15.40
2018-01-11T20:21:40.481Z,15.13
2018-01-11T20:24:10.821Z,17.30
2018-01-11T20:26:40.651Z,17.23
2018-01-11T20:29:10.673Z,16.53
2018-01-11T20:31:39.620Z,15.80
2018-01-11T20:34:15.595Z,14.37
2018-01-11T20:36:44.718Z,17.60
2018-01-11T20:39:13.878Z,18.40
2018-01-11T20:41:43.862Z,14.57
2018-01-11T20:44:12.838Z,15.60
2018-01-11T20:46:42.158Z,16.13
2018-01-11T20:49:12.910Z,16.53
2018-01-11T20:51:42.166Z,16.33
2018-01-11T20:54:13.968Z,15.73
2018-01-11T20:56:44.811Z,15.80
2018-01-11T20:59:13.752Z,15.80
2018-01-11T21:01:44.024Z,13.60
2018-01-11T21:04:18.149Z,14.90
2018-01-11T21:06:47.111Z,15.20
2018-01-11T21:09:17.002Z,12.03
2018-01-11T21:11:46.158Z,12.67
2018-01-11T21:14:17.036Z,11.27
2018-01-11T21:16:46.016Z,13.00
2018-01-11T21:19:16.240Z,12.70
2018-01-11T21:21:45.234Z,12.70
2018-01-11T21:24:14.502Z,11.83
2018-01-11T21:26:45.159Z,11.70
2018-01-11T21:29:14.333Z,12.53
2018-01-11T21:31:43.430Z,11.97
2018-01-11T21:36:46.840Z,13.00
2018-01-11T21:39:17.677Z,10.77
2018-01-11T21:41:47.505Z,11.07
2018-01-11T21:44:16.527Z,11.30
2018-01-11T21:46:46.376Z,10.97
2018-01-11T21:49:16.603Z,11.57
2018-01-11T21:51:46.051Z,11.47
2018-01-11T21:54:15.372Z,12.17
2018-01-11T21:56:45.274Z,11.83
2018-01-11T21:59:15.164Z,10.80
2018-01-11T22:01:44.261Z,11.17
2018-01-11T22:04:15.302Z,10.70
2018-01-11T22:06:44.498Z,10.50
2018-01-11T22:09:13.446Z,11.47
2018-01-11T22:11:43.700Z,9.50
2018-01-11T22:14:13.118Z,10.43
2018-01-11T22:16:42.199Z,10.73
2018-01-11T22:19:12.379Z,11.53
2018-01-11T22:21:41.470Z,11.10
2018-01-11T22:24:10.435Z,10.53
2018-01-11T22:26:39.358Z,9.70
2018-01-11T22:29:08.554Z,10.07
2018-01-11T22:31:37.605Z,9.53
2018-01-11T22:34:07.690Z,10.60
2018-01-11T22:36:36.864Z,9.87
2018-01-11T22:39:05.964Z,10.00
2018-01-11T22:41:35.253Z,11.60
2018-01-11T22:44:05.229Z,9.77
2018-01-11T22:46:34.646Z,8.83
2018-01-11T22:49:04.433Z,8.20
2018-01-11T22:51:33.778Z,9.80
2018-01-11T22:54:02.832Z,8.90
2018-01-11T22:56:33.013Z,8.47
2018-01-11T22:59:02.071Z,8.83
2018-01-11T23:01:32.929Z,8.10
2018-01-11T23:04:03.117Z,9.10
2018-01-11T23:06:32.313Z,8.83
2018-01-11T23:09:01.348Z,8.93
2018-01-11T23:11:38.678Z,7.73
2018-01-11T23:14:07.807Z,8.27
2018-01-11T23:16:39.601Z,8.40
2018-01-11T23:19:10.217Z,7.47
2018-01-11T23:21:39.431Z,7.50
2018-01-11T23:24:09.825Z,6.93
2018-01-11T23:26:39.738Z,9.10
2018-01-11T23:29:08.931Z,7.10
2018-01-11T23:31:39.195Z,7.23
2018-01-11T23:34:08.281Z,8.00
2018-01-11T23:36:37.354Z,6.50
2018-01-11T23:39:06.436Z,7.33
2018-01-11T23:41:36.289Z,8.40
2018-01-11T23:44:05.306Z,7.20
2018-01-11T23:46:34.479Z,8.00
2018-01-11T23:49:03.781Z,7.33
2018-01-11T23:51:32.877Z,7.20
2018-01-11T23:54:05.434Z,7.60
2018-01-11T23:56:40.050Z,7.10
2018-01-11T23:59:09.139Z,6.20
